sensor_id;sensor_type;location;lat;lon;timestamp;P1;durP1;ratioP1;P2;durP2;ratioP2
77591;SDS011;66891;46.884;17.436;2023-11-19T00:01:50;12.90;;;3.80;;
77591;SDS011;66891;46.884;17.436;2023-11-19T00:04:18;16.73;;;4.05;;
77591;SDS011;66891;46.884;17.436;2023-11-19T00:06:45;15.32;;;3.90;;
77591;SDS011;66891;46.884;17.436;2023-11-19T00:09:12;24.35;;;5.53;;
77591;SDS011;66891;46.884;17.436;2023-11-19T00:11:39;14.63;;;4.15;;
77591;SDS011;66891;46.884;17.436;2023-11-19T00:14:07;17.73;;;4.65;;
77591;SDS011;66891;46.884;17.436;2023-11-19T00:16:35;11.95;;;3.78;;
77591;SDS011;66891;46.884;17.436;2023-11-19T00:19:02;22.67;;;8.77;;
77591;SDS011;66891;46.884;17.436;2023-11-19T00:21:31;19.03;;;6.87;;
77591;SDS011;66891;46.884;17.436;2023-11-19T00:24:00;16.38;;;6.20;;
77591;SDS011;66891;46.884;17.436;2023-11-19T00:26:27;16.27;;;6.03;;
77591;SDS011;66891;46.884;17.436;2023-11-19T00:28:54;17.08;;;6.65;;
77591;SDS011;66891;46.884;17.436;2023-11-19T00:31:24;17.23;;;5.75;;
77591;SDS011;66891;46.884;17.436;2023-11-19T00:33:54;17.13;;;5.82;;
77591;SDS011;66891;46.884;17.436;2023-11-19T00:36:21;16.65;;;5.85;;
77591;SDS011;66891;46.884;17.436;2023-11-19T00:38:50;19.13;;;5.93;;
77591;SDS011;66891;46.884;17.436;2023-11-19T00:41:19;19.60;;;7.40;;
77591;SDS011;66891;46.884;17.436;2023-11-19T00:43:46;21.90;;;9.02;;
77591;SDS011;66891;46.884;17.436;2023-11-19T00:46:13;26.88;;;10.75;;
77591;SDS011;66891;46.884;17.436;2023-11-19T00:48:44;25.60;;;10.60;;
77591;SDS011;66891;46.884;17.436;2023-11-19T00:51:12;29.42;;;11.55;;
77591;SDS011;66891;46.884;17.436;2023-11-19T00:53:39;28.05;;;10.45;;
77591;SDS011;66891;46.884;17.436;2023-11-19T00:56:10;23.08;;;7.60;;
77591;SDS011;66891;46.884;17.436;2023-11-19T00:58:39;13.90;;;5.23;;
77591;SDS011;66891;46.884;17.436;2023-11-19T01:01:06;18.15;;;6.88;;
77591;SDS011;66891;46.884;17.436;2023-11-19T01:03:33;18.63;;;6.68;;
77591;SDS011;66891;46.884;17.436;2023-11-19T01:06:02;17.85;;;6.53;;
77591;SDS011;66891;46.884;17.436;2023-11-19T01:08:29;18.00;;;6.60;;
77591;SDS011;66891;46.884;17.436;2023-11-19T01:10:56;17.15;;;6.55;;
77591;SDS011;66891;46.884;17.436;2023-11-19T01:13:23;17.67;;;5.68;;
77591;SDS011;66891;46.884;17.436;2023-11-19T01:15:51;18.15;;;6.72;;
77591;SDS011;66891;46.884;17.436;2023-11-19T01:18:18;15.82;;;6.65;;
77591;SDS011;66891;46.884;17.436;2023-11-19T01:20:45;18.83;;;6.78;;
77591;SDS011;66891;46.884;17.436;2023-11-19T01:23:14;17.45;;;6.95;;
77591;SDS011;66891;46.884;17.436;2023-11-19T01:25:41;17.63;;;5.72;;
77591;SDS011;66891;46.884;17.436;2023-11-19T01:28:07;18.27;;;6.25;;
77591;SDS011;66891;46.884;17.436;2023-11-19T01:30:35;16.63;;;5.60;;
77591;SDS011;66891;46.884;17.436;2023-11-19T01:33:02;13.95;;;4.70;;
77591;SDS011;66891;46.884;17.436;2023-11-19T01:35:29;11.52;;;4.20;;
77591;SDS011;66891;46.884;17.436;2023-11-19T01:37:56;12.02;;;3.83;;
77591;SDS011;66891;46.884;17.436;2023-11-19T01:40:24;10.63;;;4.00;;
77591;SDS011;66891;46.884;17.436;2023-11-19T01:42:51;11.18;;;3.22;;
77591;SDS011;66891;46.884;17.436;2023-11-19T01:45:22;8.82;;;3.10;;
77591;SDS011;66891;46.884;17.436;2023-11-19T01:47:53;11.63;;;4.00;;
77591;SDS011;66891;46.884;17.436;2023-11-19T01:50:21;38.97;;;11.20;;
77591;SDS011;66891;46.884;17.436;2023-11-19T01:52:48;36.78;;;11.57;;
77591;SDS011;66891;46.884;17.436;2023-11-19T01:55:15;43.55;;;13.85;;
77591;SDS011;66891;46.884;17.436;2023-11-19T01:57:43;64.25;;;18.80;;
77591;SDS011;66891;46.884;17.436;2023-11-19T02:00:11;45.37;;;15.07;;
77591;SDS011;66891;46.884;17.436;2023-11-19T02:02:39;31.88;;;9.90;;
77591;SDS011;66891;46.884;17.436;2023-11-19T02:05:07;24.80;;;8.43;;
77591;SDS011;66891;46.884;17.436;2023-11-19T02:07:34;21.77;;;6.38;;
77591;SDS011;66891;46.884;17.436;2023-11-19T02:10:01;16.10;;;4.95;;
77591;SDS011;66891;46.884;17.436;2023-11-19T02:12:29;13.43;;;4.87;;
77591;SDS011;66891;46.884;17.436;2023-11-19T02:14:57;13.20;;;4.55;;
77591;SDS011;66891;46.884;17.436;2023-11-19T02:17:26;9.35;;;3.50;;
77591;SDS011;66891;46.884;17.436;2023-11-19T02:19:54;10.85;;;3.60;;
77591;SDS011;66891;46.884;17.436;2023-11-19T02:22:20;13.40;;;4.50;;
77591;SDS011;66891;46.884;17.436;2023-11-19T02:24:47;12.30;;;4.25;;
77591;SDS011;66891;46.884;17.436;2023-11-19T02:27:17;11.45;;;3.70;;
77591;SDS011;66891;46.884;17.436;2023-11-19T02:29:47;9.98;;;3.55;;
77591;SDS011;66891;46.884;17.436;2023-11-19T02:32:15;11.02;;;3.20;;
77591;SDS011;66891;46.884;17.436;2023-11-19T02:34:42;10.23;;;3.20;;
77591;SDS011;66891;46.884;17.436;2023-11-19T02:37:09;11.83;;;3.40;;
77591;SDS011;66891;46.884;17.436;2023-11-19T02:39:36;12.25;;;3.78;;
77591;SDS011;66891;46.884;17.436;2023-11-19T02:42:05;11.27;;;3.75;;
77591;SDS011;66891;46.884;17.436;2023-11-19T02:44:33;10.75;;;3.50;;
77591;SDS011;66891;46.884;17.436;2023-11-19T02:47:02;13.90;;;3.42;;
77591;SDS011;66891;46.884;17.436;2023-11-19T02:49:30;11.52;;;3.80;;
77591;SDS011;66891;46.884;17.436;2023-11-19T02:51:57;11.45;;;3.38;;
77591;SDS011;66891;46.884;17.436;2023-11-19T02:54:26;8.95;;;2.90;;
77591;SDS011;66891;46.884;17.436;2023-11-19T02:56:54;11.18;;;2.97;;
77591;SDS011;66891;46.884;17.436;2023-11-19T02:59:26;11.00;;;2.95;;
77591;SDS011;66891;46.884;17.436;2023-11-19T03:02:07;11.17;;;3.30;;
77591;SDS011;66891;46.884;17.436;2023-11-19T03:04:38;11.38;;;3.42;;
77591;SDS011;66891;46.884;17.436;2023-11-19T03:07:06;10.15;;;3.10;;
77591;SDS011;66891;46.884;17.436;2023-11-19T03:09:36;10.57;;;2.78;;
77591;SDS011;66891;46.884;17.436;2023-11-19T03:12:05;18.55;;;6.75;;
77591;SDS011;66891;46.884;17.436;2023-11-19T03:14:33;21.48;;;8.82;;
77591;SDS011;66891;46.884;17.436;2023-11-19T03:17:01;17.25;;;6.80;;
77591;SDS011;66891;46.884;17.436;2023-11-19T03:19:29;14.00;;;4.63;;
77591;SDS011;66891;46.884;17.436;2023-11-19T03:21:57;12.30;;;4.00;;
77591;SDS011;66891;46.884;17.436;2023-11-19T03:24:24;10.00;;;3.20;;
77591;SDS011;66891;46.884;17.436;2023-11-19T03:26:51;11.00;;;2.93;;
77591;SDS011;66891;46.884;17.436;2023-11-19T03:29:18;9.60;;;2.80;;
77591;SDS011;66891;46.884;17.436;2023-11-19T03:31:45;12.48;;;3.47;;
77591;SDS011;66891;46.884;17.436;2023-11-19T03:34:12;11.80;;;3.50;;
77591;SDS011;66891;46.884;17.436;2023-11-19T03:36:41;10.68;;;3.15;;
77591;SDS011;66891;46.884;17.436;2023-11-19T03:39:08;9.90;;;3.15;;
77591;SDS011;66891;46.884;17.436;2023-11-19T03:41:35;12.02;;;3.28;;
77591;SDS011;66891;46.884;17.436;2023-11-19T03:44:05;10.27;;;2.90;;
77591;SDS011;66891;46.884;17.436;2023-11-19T03:46:32;17.48;;;5.25;;
77591;SDS011;66891;46.884;17.436;2023-11-19T03:48:59;21.15;;;6.38;;
77591;SDS011;66891;46.884;17.436;2023-11-19T03:51:26;24.00;;;5.40;;
77591;SDS011;66891;46.884;17.436;2023-11-19T03:53:54;31.15;;;8.65;;
77591;SDS011;66891;46.884;17.436;2023-11-19T03:56:21;25.02;;;7.47;;
77591;SDS011;66891;46.884;17.436;2023-11-19T03:58:48;19.88;;;5.93;;
77591;SDS011;66891;46.884;17.436;2023-11-19T04:01:16;16.65;;;5.57;;
77591;SDS011;66891;46.884;17.436;2023-11-19T04:03:43;12.85;;;4.07;;
77591;SDS011;66891;46.884;17.436;2023-11-19T04:06:13;12.13;;;3.60;;
77591;SDS011;66891;46.884;17.436;2023-11-19T04:08:40;11.95;;;3.65;;
77591;SDS011;66891;46.884;17.436;2023-11-19T04:11:09;10.05;;;3.35;;
77591;SDS011;66891;46.884;17.436;2023-11-19T04:13:36;10.88;;;3.33;;
77591;SDS011;66891;46.884;17.436;2023-11-19T04:16:03;10.50;;;3.80;;
77591;SDS011;66891;46.884;17.436;2023-11-19T04:18:31;10.98;;;3.35;;
77591;SDS011;66891;46.884;17.436;2023-11-19T04:21:01;10.50;;;3.42;;
77591;SDS011;66891;46.884;17.436;2023-11-19T04:23:28;10.70;;;3.03;;
77591;SDS011;66891;46.884;17.436;2023-11-19T04:25:55;10.20;;;3.35;;
77591;SDS011;66891;46.884;17.436;2023-11-19T04:28:38;10.40;;;3.20;;
77591;SDS011;66891;46.884;17.436;2023-11-19T04:31:05;11.00;;;3.70;;
77591;SDS011;66891;46.884;17.436;2023-11-19T04:33:32;10.88;;;4.20;;
77591;SDS011;66891;46.884;17.436;2023-11-19T04:36:00;12.50;;;4.28;;
77591;SDS011;66891;46.884;17.436;2023-11-19T04:38:26;11.20;;;3.72;;
77591;SDS011;66891;46.884;17.436;2023-11-19T04:40:53;13.43;;;4.20;;
77591;SDS011;66891;46.884;17.436;2023-11-19T04:43:20;11.37;;;3.60;;
77591;SDS011;66891;46.884;17.436;2023-11-19T04:45:49;12.20;;;3.70;;
77591;SDS011;66891;46.884;17.436;2023-11-19T04:48:16;9.95;;;3.30;;
77591;SDS011;66891;46.884;17.436;2023-11-19T04:50:43;10.55;;;2.70;;
77591;SDS011;66891;46.884;17.436;2023-11-19T04:53:11;11.57;;;3.20;;
77591;SDS011;66891;46.884;17.436;2023-11-19T04:55:38;8.47;;;2.60;;
77591;SDS011;66891;46.884;17.436;2023-11-19T04:58:05;10.30;;;3.10;;
77591;SDS011;66891;46.884;17.436;2023-11-19T05:00:32;9.43;;;2.60;;
77591;SDS011;66891;46.884;17.436;2023-11-19T05:03:00;10.35;;;3.03;;
77591;SDS011;66891;46.884;17.436;2023-11-19T05:05:28;10.50;;;2.85;;
77591;SDS011;66891;46.884;17.436;2023-11-19T05:07:56;10.37;;;3.00;;
77591;SDS011;66891;46.884;17.436;2023-11-19T05:10:23;8.20;;;2.63;;
77591;SDS011;66891;46.884;17.436;2023-11-19T05:12:51;9.45;;;2.63;;
77591;SDS011;66891;46.884;17.436;2023-11-19T05:15:18;9.20;;;2.80;;
77591;SDS011;66891;46.884;17.436;2023-11-19T05:17:45;10.43;;;2.63;;
77591;SDS011;66891;46.884;17.436;2023-11-19T05:20:14;9.48;;;2.72;;
77591;SDS011;66891;46.884;17.436;2023-11-19T05:22:42;8.60;;;2.58;;
77591;SDS011;66891;46.884;17.436;2023-11-19T05:25:09;11.68;;;3.50;;
77591;SDS011;66891;46.884;17.436;2023-11-19T05:27:37;15.75;;;6.13;;
77591;SDS011;66891;46.884;17.436;2023-11-19T05:30:05;17.48;;;7.40;;
77591;SDS011;66891;46.884;17.436;2023-11-19T05:32:37;16.90;;;6.85;;
77591;SDS011;66891;46.884;17.436;2023-11-19T05:35:05;15.48;;;6.82;;
77591;SDS011;66891;46.884;17.436;2023-11-19T05:37:33;13.95;;;5.70;;
77591;SDS011;66891;46.884;17.436;2023-11-19T05:40:01;13.48;;;5.50;;
77591;SDS011;66891;46.884;17.436;2023-11-19T05:42:30;15.38;;;5.70;;
77591;SDS011;66891;46.884;17.436;2023-11-19T05:44:57;15.32;;;6.18;;
77591;SDS011;66891;46.884;17.436;2023-11-19T05:47:24;17.52;;;6.65;;
77591;SDS011;66891;46.884;17.436;2023-11-19T05:49:52;14.55;;;6.50;;
77591;SDS011;66891;46.884;17.436;2023-11-19T05:52:19;15.57;;;6.47;;
77591;SDS011;66891;46.884;17.436;2023-11-19T05:54:47;16.63;;;6.85;;
77591;SDS011;66891;46.884;17.436;2023-11-19T05:57:18;14.65;;;6.25;;
77591;SDS011;66891;46.884;17.436;2023-11-19T05:59:50;16.00;;;6.13;;
77591;SDS011;66891;46.884;17.436;2023-11-19T06:02:17;12.95;;;4.78;;
77591;SDS011;66891;46.884;17.436;2023-11-19T06:04:44;11.73;;;4.28;;
77591;SDS011;66891;46.884;17.436;2023-11-19T06:07:14;12.95;;;4.32;;
77591;SDS011;66891;46.884;17.436;2023-11-19T06:09:42;11.95;;;3.67;;
77591;SDS011;66891;46.884;17.436;2023-11-19T06:12:10;9.15;;;3.72;;
77591;SDS011;66891;46.884;17.436;2023-11-19T06:14:37;9.13;;;3.03;;
77591;SDS011;66891;46.884;17.436;2023-11-19T06:17:04;8.93;;;3.10;;
77591;SDS011;66891;46.884;17.436;2023-11-19T06:19:31;9.57;;;3.10;;
77591;SDS011;66891;46.884;17.436;2023-11-19T06:21:58;9.57;;;3.33;;
77591;SDS011;66891;46.884;17.436;2023-11-19T06:24:25;10.15;;;3.55;;
77591;SDS011;66891;46.884;17.436;2023-11-19T06:26:52;10.30;;;3.65;;
77591;SDS011;66891;46.884;17.436;2023-11-19T06:29:21;13.15;;;3.97;;
77591;SDS011;66891;46.884;17.436;2023-11-19T06:31:49;11.07;;;3.53;;
77591;SDS011;66891;46.884;17.436;2023-11-19T06:34:16;10.45;;;3.90;;
77591;SDS011;66891;46.884;17.436;2023-11-19T06:36:43;10.95;;;3.97;;
77591;SDS011;66891;46.884;17.436;2023-11-19T06:39:10;12.75;;;4.45;;
77591;SDS011;66891;46.884;17.436;2023-11-19T06:41:37;12.20;;;4.15;;
77591;SDS011;66891;46.884;17.436;2023-11-19T06:44:05;11.07;;;4.38;;
77591;SDS011;66891;46.884;17.436;2023-11-19T06:46:34;11.55;;;4.28;;
77591;SDS011;66891;46.884;17.436;2023-11-19T06:49:01;14.38;;;4.75;;
77591;SDS011;66891;46.884;17.436;2023-11-19T06:51:28;12.50;;;4.05;;
77591;SDS011;66891;46.884;17.436;2023-11-19T06:53:56;11.77;;;3.90;;
77591;SDS011;66891;46.884;17.436;2023-11-19T06:56:23;11.93;;;4.07;;
77591;SDS011;66891;46.884;17.436;2023-11-19T06:58:50;11.68;;;4.22;;
77591;SDS011;66891;46.884;17.436;2023-11-19T07:01:18;10.35;;;3.70;;
77591;SDS011;66891;46.884;17.436;2023-11-19T07:03:46;12.15;;;4.28;;
77591;SDS011;66891;46.884;17.436;2023-11-19T07:06:14;16.33;;;5.35;;
77591;SDS011;66891;46.884;17.436;2023-11-19T07:08:41;22.60;;;7.90;;
77591;SDS011;66891;46.884;17.436;2023-11-19T07:11:08;24.13;;;9.07;;
77591;SDS011;66891;46.884;17.436;2023-11-19T07:13:36;23.67;;;9.63;;
77591;SDS011;66891;46.884;17.436;2023-11-19T07:16:04;22.63;;;9.18;;
77591;SDS011;66891;46.884;17.436;2023-11-19T07:18:31;19.40;;;7.90;;
77591;SDS011;66891;46.884;17.436;2023-11-19T07:21:00;19.13;;;7.13;;
77591;SDS011;66891;46.884;17.436;2023-11-19T07:23:27;14.85;;;5.75;;
77591;SDS011;66891;46.884;17.436;2023-11-19T07:25:54;13.25;;;5.80;;
77591;SDS011;66891;46.884;17.436;2023-11-19T07:28:21;14.85;;;5.50;;
77591;SDS011;66891;46.884;17.436;2023-11-19T07:30:47;12.85;;;4.90;;
77591;SDS011;66891;46.884;17.436;2023-11-19T07:33:14;13.20;;;5.50;;
77591;SDS011;66891;46.884;17.436;2023-11-19T07:35:42;14.13;;;4.97;;
77591;SDS011;66891;46.884;17.436;2023-11-19T07:38:11;13.80;;;5.35;;
77591;SDS011;66891;46.884;17.436;2023-11-19T07:40:38;15.50;;;5.70;;
77591;SDS011;66891;46.884;17.436;2023-11-19T07:43:05;13.13;;;5.43;;
77591;SDS011;66891;46.884;17.436;2023-11-19T07:45:33;12.63;;;5.20;;
77591;SDS011;66891;46.884;17.436;2023-11-19T07:48:01;10.53;;;4.50;;
77591;SDS011;66891;46.884;17.436;2023-11-19T07:50:28;12.63;;;4.55;;
77591;SDS011;66891;46.884;17.436;2023-11-19T07:52:56;10.57;;;4.30;;
77591;SDS011;66891;46.884;17.436;2023-11-19T07:55:25;10.68;;;3.53;;
77591;SDS011;66891;46.884;17.436;2023-11-19T07:57:52;13.00;;;4.18;;
77591;SDS011;66891;46.884;17.436;2023-11-19T08:00:19;14.35;;;5.07;;
77591;SDS011;66891;46.884;17.436;2023-11-19T08:02:46;12.70;;;4.45;;
77591;SDS011;66891;46.884;17.436;2023-11-19T08:05:13;10.80;;;4.10;;
77591;SDS011;66891;46.884;17.436;2023-11-19T08:07:40;10.88;;;4.13;;
77591;SDS011;66891;46.884;17.436;2023-11-19T08:10:08;13.30;;;4.30;;
77591;SDS011;66891;46.884;17.436;2023-11-19T08:12:39;13.32;;;4.72;;
77591;SDS011;66891;46.884;17.436;2023-11-19T08:15:06;15.75;;;5.97;;
77591;SDS011;66891;46.884;17.436;2023-11-19T08:17:33;19.40;;;7.18;;
77591;SDS011;66891;46.884;17.436;2023-11-19T08:20:00;21.85;;;8.80;;
77591;SDS011;66891;46.884;17.436;2023-11-19T08:22:27;19.35;;;8.18;;
77591;SDS011;66891;46.884;17.436;2023-11-19T08:24:54;14.85;;;5.90;;
77591;SDS011;66891;46.884;17.436;2023-11-19T08:27:21;13.10;;;4.97;;
77591;SDS011;66891;46.884;17.436;2023-11-19T08:29:54;10.48;;;3.70;;
77591;SDS011;66891;46.884;17.436;2023-11-19T08:32:25;10.32;;;3.97;;
77591;SDS011;66891;46.884;17.436;2023-11-19T08:34:52;10.50;;;3.65;;
77591;SDS011;66891;46.884;17.436;2023-11-19T08:37:19;11.30;;;3.75;;
77591;SDS011;66891;46.884;17.436;2023-11-19T08:39:48;12.18;;;4.47;;
77591;SDS011;66891;46.884;17.436;2023-11-19T08:42:15;10.65;;;3.88;;
77591;SDS011;66891;46.884;17.436;2023-11-19T08:44:42;11.18;;;3.60;;
77591;SDS011;66891;46.884;17.436;2023-11-19T08:47:12;11.02;;;3.85;;
77591;SDS011;66891;46.884;17.436;2023-11-19T08:49:39;9.85;;;3.95;;
77591;SDS011;66891;46.884;17.436;2023-11-19T08:52:06;11.98;;;4.20;;
77591;SDS011;66891;46.884;17.436;2023-11-19T08:54:37;11.45;;;3.88;;
77591;SDS011;66891;46.884;17.436;2023-11-19T08:57:04;11.15;;;3.90;;
77591;SDS011;66891;46.884;17.436;2023-11-19T08:59:34;10.32;;;3.60;;
77591;SDS011;66891;46.884;17.436;2023-11-19T09:02:01;10.57;;;3.90;;
77591;SDS011;66891;46.884;17.436;2023-11-19T09:04:30;11.13;;;4.05;;
77591;SDS011;66891;46.884;17.436;2023-11-19T09:06:57;12.23;;;4.10;;
77591;SDS011;66891;46.884;17.436;2023-11-19T09:09:24;10.20;;;3.55;;
77591;SDS011;66891;46.884;17.436;2023-11-19T09:11:51;12.00;;;3.88;;
77591;SDS011;66891;46.884;17.436;2023-11-19T09:14:19;9.93;;;3.70;;
77591;SDS011;66891;46.884;17.436;2023-11-19T09:16:50;10.75;;;3.88;;
77591;SDS011;66891;46.884;17.436;2023-11-19T09:19:18;11.75;;;4.60;;
77591;SDS011;66891;46.884;17.436;2023-11-19T09:21:46;12.23;;;4.43;;
77591;SDS011;66891;46.884;17.436;2023-11-19T09:24:14;12.32;;;4.60;;
77591;SDS011;66891;46.884;17.436;2023-11-19T09:26:42;13.20;;;5.53;;
77591;SDS011;66891;46.884;17.436;2023-11-19T09:29:09;13.23;;;5.60;;
77591;SDS011;66891;46.884;17.436;2023-11-19T09:31:37;12.85;;;4.72;;
77591;SDS011;66891;46.884;17.436;2023-11-19T09:34:04;11.68;;;4.32;;
77591;SDS011;66891;46.884;17.436;2023-11-19T09:36:32;12.90;;;4.93;;
77591;SDS011;66891;46.884;17.436;2023-11-19T09:39:00;13.93;;;5.70;;
77591;SDS011;66891;46.884;17.436;2023-11-19T09:41:29;10.88;;;3.83;;
77591;SDS011;66891;46.884;17.436;2023-11-19T09:43:56;10.35;;;3.60;;
77591;SDS011;66891;46.884;17.436;2023-11-19T09:46:23;9.93;;;3.63;;
77591;SDS011;66891;46.884;17.436;2023-11-19T09:48:51;12.20;;;4.18;;
77591;SDS011;66891;46.884;17.436;2023-11-19T09:51:21;10.53;;;4.00;;
77591;SDS011;66891;46.884;17.436;2023-11-19T09:53:49;9.43;;;3.50;;
77591;SDS011;66891;46.884;17.436;2023-11-19T09:56:17;9.07;;;3.15;;
77591;SDS011;66891;46.884;17.436;2023-11-19T09:58:45;10.65;;;4.50;;
77591;SDS011;66891;46.884;17.436;2023-11-19T10:01:13;10.75;;;4.40;;
77591;SDS011;66891;46.884;17.436;2023-11-19T10:03:44;10.50;;;3.90;;
77591;SDS011;66891;46.884;17.436;2023-11-19T10:06:14;11.13;;;4.20;;
77591;SDS011;66891;46.884;17.436;2023-11-19T10:08:42;13.60;;;5.40;;
77591;SDS011;66891;46.884;17.436;2023-11-19T10:11:10;11.07;;;3.90;;
77591;SDS011;66891;46.884;17.436;2023-11-19T10:13:41;11.20;;;4.53;;
77591;SDS011;66891;46.884;17.436;2023-11-19T10:16:09;9.80;;;3.63;;
77591;SDS011;66891;46.884;17.436;2023-11-19T10:18:42;10.35;;;4.10;;
77591;SDS011;66891;46.884;17.436;2023-11-19T10:21:10;13.30;;;4.55;;
77591;SDS011;66891;46.884;17.436;2023-11-19T10:23:49;11.13;;;4.47;;
77591;SDS011;66891;46.884;17.436;2023-11-19T10:26:18;10.13;;;3.25;;
77591;SDS011;66891;46.884;17.436;2023-11-19T10:28:47;9.17;;;3.30;;
77591;SDS011;66891;46.884;17.436;2023-11-19T10:31:15;11.15;;;3.78;;
77591;SDS011;66891;46.884;17.436;2023-11-19T10:33:42;10.65;;;4.22;;
77591;SDS011;66891;46.884;17.436;2023-11-19T10:36:12;10.52;;;4.07;;
77591;SDS011;66891;46.884;17.436;2023-11-19T10:38:39;11.40;;;4.15;;
77591;SDS011;66891;46.884;17.436;2023-11-19T10:41:07;11.63;;;4.77;;
77591;SDS011;66891;46.884;17.436;2023-11-19T10:43:42;13.40;;;5.22;;
77591;SDS011;66891;46.884;17.436;2023-11-19T10:46:13;12.30;;;5.00;;
77591;SDS011;66891;46.884;17.436;2023-11-19T10:48:40;11.00;;;4.53;;
77591;SDS011;66891;46.884;17.436;2023-11-19T10:51:07;11.35;;;4.22;;
77591;SDS011;66891;46.884;17.436;2023-11-19T10:53:36;14.33;;;6.27;;
77591;SDS011;66891;46.884;17.436;2023-11-19T10:56:04;13.93;;;5.38;;
77591;SDS011;66891;46.884;17.436;2023-11-19T10:58:33;9.50;;;3.50;;
77591;SDS011;66891;46.884;17.436;2023-11-19T11:01:01;10.77;;;4.13;;
77591;SDS011;66891;46.884;17.436;2023-11-19T11:03:35;13.57;;;5.18;;
77591;SDS011;66891;46.884;17.436;2023-11-19T11:06:04;12.23;;;4.10;;
77591;SDS011;66891;46.884;17.436;2023-11-19T11:08:31;11.07;;;3.95;;
77591;SDS011;66891;46.884;17.436;2023-11-19T11:10:58;11.43;;;4.25;;
77591;SDS011;66891;46.884;17.436;2023-11-19T11:13:26;12.90;;;4.18;;
77591;SDS011;66891;46.884;17.436;2023-11-19T11:15:57;10.35;;;3.80;;
77591;SDS011;66891;46.884;17.436;2023-11-19T11:18:27;13.77;;;5.00;;
77591;SDS011;66891;46.884;17.436;2023-11-19T11:20:56;9.82;;;4.18;;
77591;SDS011;66891;46.884;17.436;2023-11-19T11:23:29;9.68;;;3.75;;
77591;SDS011;66891;46.884;17.436;2023-11-19T11:26:00;9.95;;;3.83;;
77591;SDS011;66891;46.884;17.436;2023-11-19T11:28:34;9.57;;;3.28;;
77591;SDS011;66891;46.884;17.436;2023-11-19T11:31:09;8.97;;;3.20;;
77591;SDS011;66891;46.884;17.436;2023-11-19T11:33:42;11.23;;;4.40;;
77591;SDS011;66891;46.884;17.436;2023-11-19T11:36:17;10.90;;;4.50;;
77591;SDS011;66891;46.884;17.436;2023-11-19T11:38:47;10.07;;;3.65;;
77591;SDS011;66891;46.884;17.436;2023-11-19T11:41:15;10.32;;;3.80;;
77591;SDS011;66891;46.884;17.436;2023-11-19T11:43:44;9.33;;;3.27;;
77591;SDS011;66891;46.884;17.436;2023-11-19T11:48:58;10.98;;;4.28;;
77591;SDS011;66891;46.884;17.436;2023-11-19T11:54:10;11.10;;;4.05;;
77591;SDS011;66891;46.884;17.436;2023-11-19T11:56:37;11.33;;;4.77;;
77591;SDS011;66891;46.884;17.436;2023-11-19T11:59:07;14.93;;;5.30;;
77591;SDS011;66891;46.884;17.436;2023-11-19T12:01:35;12.80;;;5.18;;
77591;SDS011;66891;46.884;17.436;2023-11-19T12:04:01;12.82;;;5.32;;
77591;SDS011;66891;46.884;17.436;2023-11-19T12:06:32;12.77;;;4.95;;
77591;SDS011;66891;46.884;17.436;2023-11-19T12:08:59;10.70;;;4.57;;
77591;SDS011;66891;46.884;17.436;2023-11-19T12:11:29;11.68;;;4.20;;
77591;SDS011;66891;46.884;17.436;2023-11-19T12:13:59;11.70;;;4.40;;
77591;SDS011;66891;46.884;17.436;2023-11-19T12:16:29;13.43;;;5.57;;
77591;SDS011;66891;46.884;17.436;2023-11-19T12:18:57;19.45;;;5.03;;
77591;SDS011;66891;46.884;17.436;2023-11-19T12:21:31;12.23;;;4.90;;
77591;SDS011;66891;46.884;17.436;2023-11-19T12:23:58;12.88;;;5.28;;
77591;SDS011;66891;46.884;17.436;2023-11-19T12:26:33;12.50;;;4.68;;
77591;SDS011;66891;46.884;17.436;2023-11-19T12:29:01;10.55;;;4.38;;
77591;SDS011;66891;46.884;17.436;2023-11-19T12:31:34;12.25;;;4.82;;
77591;SDS011;66891;46.884;17.436;2023-11-19T12:34:09;13.37;;;4.13;;
77591;SDS011;66891;46.884;17.436;2023-11-19T12:36:40;9.98;;;4.00;;
77591;SDS011;66891;46.884;17.436;2023-11-19T12:39:07;10.07;;;3.50;;
77591;SDS011;66891;46.884;17.436;2023-11-19T12:44:18;8.75;;;3.03;;
77591;SDS011;66891;46.884;17.436;2023-11-19T12:46:45;10.00;;;3.27;;
77591;SDS011;66891;46.884;17.436;2023-11-19T12:49:12;8.40;;;2.97;;
77591;SDS011;66891;46.884;17.436;2023-11-19T12:51:39;8.50;;;2.90;;
77591;SDS011;66891;46.884;17.436;2023-11-19T12:54:06;9.77;;;3.65;;
77591;SDS011;66891;46.884;17.436;2023-11-19T12:56:33;8.20;;;3.22;;
77591;SDS011;66891;46.884;17.436;2023-11-19T12:59:09;11.00;;;4.67;;
77591;SDS011;66891;46.884;17.436;2023-11-19T13:01:39;10.75;;;4.05;;
77591;SDS011;66891;46.884;17.436;2023-11-19T13:04:17;12.18;;;4.30;;
77591;SDS011;66891;46.884;17.436;2023-11-19T13:06:45;12.60;;;4.30;;
77591;SDS011;66891;46.884;17.436;2023-11-19T13:09:29;13.20;;;5.32;;
77591;SDS011;66891;46.884;17.436;2023-11-19T13:11:57;16.47;;;6.37;;
77591;SDS011;66891;46.884;17.436;2023-11-19T13:14:35;15.57;;;6.57;;
77591;SDS011;66891;46.884;17.436;2023-11-19T13:17:04;9.75;;;4.13;;
77591;SDS011;66891;46.884;17.436;2023-11-19T13:19:32;10.07;;;4.25;;
77591;SDS011;66891;46.884;17.436;2023-11-19T13:21:59;14.75;;;6.13;;
77591;SDS011;66891;46.884;17.436;2023-11-19T13:24:27;11.33;;;4.23;;
77591;SDS011;66891;46.884;17.436;2023-11-19T13:26:54;14.60;;;5.45;;
77591;SDS011;66891;46.884;17.436;2023-11-19T13:29:22;13.70;;;5.75;;
77591;SDS011;66891;46.884;17.436;2023-11-19T13:31:49;13.85;;;5.03;;
77591;SDS011;66891;46.884;17.436;2023-11-19T13:34:18;19.02;;;7.40;;
77591;SDS011;66891;46.884;17.436;2023-11-19T13:36:45;17.13;;;6.27;;
77591;SDS011;66891;46.884;17.436;2023-11-19T13:39:13;14.05;;;5.78;;
77591;SDS011;66891;46.884;17.436;2023-11-19T13:41:42;14.40;;;6.40;;
77591;SDS011;66891;46.884;17.436;2023-11-19T13:44:09;14.27;;;6.53;;
77591;SDS011;66891;46.884;17.436;2023-11-19T13:46:35;11.23;;;4.63;;
77591;SDS011;66891;46.884;17.436;2023-11-19T13:49:03;12.33;;;4.70;;
77591;SDS011;66891;46.884;17.436;2023-11-19T13:51:33;10.57;;;3.53;;
77591;SDS011;66891;46.884;17.436;2023-11-19T13:54:00;15.93;;;5.60;;
77591;SDS011;66891;46.884;17.436;2023-11-19T13:56:27;10.07;;;4.00;;
77591;SDS011;66891;46.884;17.436;2023-11-19T13:58:54;13.18;;;4.90;;
77591;SDS011;66891;46.884;17.436;2023-11-19T14:01:22;14.10;;;5.17;;
77591;SDS011;66891;46.884;17.436;2023-11-19T14:03:52;14.32;;;6.05;;
77591;SDS011;66891;46.884;17.436;2023-11-19T14:06:19;12.40;;;4.95;;
77591;SDS011;66891;46.884;17.436;2023-11-19T14:08:49;11.50;;;4.93;;
77591;SDS011;66891;46.884;17.436;2023-11-19T14:11:15;11.93;;;5.30;;
77591;SDS011;66891;46.884;17.436;2023-11-19T14:13:43;11.93;;;4.57;;
77591;SDS011;66891;46.884;17.436;2023-11-19T14:16:10;13.82;;;4.60;;
77591;SDS011;66891;46.884;17.436;2023-11-19T14:18:39;13.55;;;5.10;;
77591;SDS011;66891;46.884;17.436;2023-11-19T14:21:06;13.32;;;5.50;;
77591;SDS011;66891;46.884;17.436;2023-11-19T14:23:33;13.25;;;6.03;;
77591;SDS011;66891;46.884;17.436;2023-11-19T14:26:01;13.67;;;5.60;;
77591;SDS011;66891;46.884;17.436;2023-11-19T14:28:29;12.05;;;5.35;;
77591;SDS011;66891;46.884;17.436;2023-11-19T14:30:58;11.23;;;4.15;;
77591;SDS011;66891;46.884;17.436;2023-11-19T14:33:25;13.88;;;4.22;;
77591;SDS011;66891;46.884;17.436;2023-11-19T14:35:51;14.05;;;6.40;;
77591;SDS011;66891;46.884;17.436;2023-11-19T14:38:18;13.43;;;5.73;;